createdAt,value
2018-04-11T00:01:35.602Z,99.90
2018-04-11T00:04:03.967Z,99.90
2018-04-11T00:06:32.335Z,99.90
2018-04-11T00:08:59.972Z,99.90
2018-04-11T00:11:28.494Z,99.90
2018-04-11T00:13:56.093Z,99.90
2018-04-11T00:16:23.700Z,99.90
2018-04-11T00:18:51.299Z,99.90
2018-04-11T00:21:19.752Z,99.90
2018-04-11T00:23:47.383Z,99.90
2018-04-11T00:26:15.032Z,99.90
2018-04-11T00:28:43.558Z,99.90
2018-04-11T00:31:11.189Z,99.90
2018-04-11T00:33:38.784Z,99.90
2018-04-11T00:36:06.370Z,99.90
2018-04-11T00:38:34.010Z,99.90
2018-04-11T00:41:01.624Z,99.90
2018-04-11T00:43:29.235Z,99.90
2018-04-11T00:45:56.864Z,99.90
2018-04-11T00:48:24.479Z,99.90
2018-04-11T00:50:52.831Z,99.90
2018-04-11T00:53:26.361Z,99.90
2018-04-11T00:55:54.033Z,99.90
2018-04-11T00:58:21.666Z,99.90
2018-04-11T01:00:50.100Z,99.90
2018-04-11T01:03:18.718Z,99.90
2018-04-11T01:05:46.604Z,99.90
2018-04-11T01:08:14.954Z,99.90
2018-04-11T01:10:42.597Z,99.90
2018-04-11T01:13:10.224Z,99.90
2018-04-11T01:15:37.840Z,99.90
2018-04-11T01:18:05.471Z,99.90
2018-04-11T01:20:33.157Z,99.90
2018-04-11T01:23:00.737Z,99.90
2018-04-11T01:25:28.341Z,99.90
2018-04-11T01:27:56.693Z,99.90
2018-04-11T01:30:24.285Z,99.90
2018-04-11T01:32:52.633Z,99.90
2018-04-11T01:35:20.279Z,99.90
2018-04-11T01:37:47.922Z,99.90
2018-04-11T01:40:15.505Z,99.90
2018-04-11T01:42:43.175Z,99.90
2018-04-11T01:45:10.861Z,99.90
2018-04-11T01:47:38.483Z,99.90
2018-04-11T01:50:06.068Z,99.90
2018-04-11T01:52:33.726Z,99.90
2018-04-11T01:55:02.071Z,99.90
2018-04-11T01:57:29.717Z,99.90
2018-04-11T01:59:57.316Z,99.90
2018-04-11T02:02:27.266Z,99.90
2018-04-11T02:04:54.876Z,99.90
2018-04-11T02:07:22.478Z,99.90
2018-04-11T02:09:50.119Z,99.90
2018-04-11T02:12:17.712Z,99.90
2018-04-11T02:14:45.334Z,99.90
2018-04-11T02:17:12.925Z,99.90
2018-04-11T02:19:41.311Z,99.90
2018-04-11T02:22:09.697Z,99.90
2018-04-11T02:24:38.050Z,99.90
2018-04-11T02:27:05.711Z,99.90
2018-04-11T02:29:34.122Z,99.90
2018-04-11T02:32:02.615Z,99.90
2018-04-11T02:34:30.286Z,99.90
2018-04-11T02:36:58.681Z,99.90
2018-04-11T02:39:26.282Z,99.90
2018-04-11T02:41:53.918Z,99.90
2018-04-11T02:44:21.502Z,99.90
2018-04-11T02:46:49.094Z,99.90
2018-04-11T02:49:16.707Z,99.90
2018-04-11T02:51:44.287Z,99.90
2018-04-11T02:54:11.865Z,99.90
2018-04-11T02:56:39.473Z,99.90
2018-04-11T02:59:07.831Z,99.90
2018-04-11T03:01:35.419Z,99.90
2018-04-11T03:04:03.765Z,99.90
2018-04-11T03:06:31.452Z,99.90
2018-04-11T03:08:59.103Z,99.90
2018-04-11T03:11:26.736Z,99.90
2018-04-11T03:13:54.351Z,99.90
2018-04-11T03:16:21.985Z,99.90
2018-04-11T03:18:50.343Z,99.90
2018-04-11T03:21:18.020Z,99.90
2018-04-11T03:23:45.592Z,99.90
2018-04-11T03:26:13.212Z,99.90
2018-04-11T03:28:40.829Z,99.90
2018-04-11T03:31:08.484Z,99.90
2018-04-11T03:33:36.082Z,99.90
2018-04-11T03:36:03.656Z,99.90
2018-04-11T03:38:31.228Z,99.90
2018-04-11T03:40:58.842Z,99.90
2018-04-11T03:43:26.428Z,99.90
2018-04-11T03:45:54.070Z,99.90
2018-04-11T03:48:21.685Z,99.90
2018-04-11T03:50:49.336Z,99.90
2018-04-11T03:53:16.932Z,99.90
2018-04-11T03:55:44.579Z,99.90
2018-04-11T03:58:12.162Z,99.90
2018-04-11T04:00:39.738Z,99.90
2018-04-11T04:03:08.129Z,99.90
2018-04-11T04:05:36.471Z,99.90
2018-04-11T04:08:04.085Z,99.90
2018-04-11T04:10:32.411Z,99.90
2018-04-11T04:13:00.024Z,99.90
2018-04-11T04:15:40.430Z,99.90
2018-04-11T04:18:19.934Z,99.90
2018-04-11T04:20:47.582Z,99.90
2018-04-11T04:23:15.156Z,99.90
2018-04-11T04:25:43.520Z,99.90
2018-04-11T04:28:11.123Z,99.90
2018-04-11T04:30:39.434Z,99.90
2018-04-11T04:33:07.046Z,99.90
2018-04-11T04:35:35.460Z,99.90
2018-04-11T04:38:03.838Z,99.90
2018-04-11T04:40:31.500Z,99.90
2018-04-11T04:42:59.112Z,99.90
2018-04-11T04:45:26.723Z,99.90
2018-04-11T04:47:54.312Z,99.90
2018-04-11T04:50:22.652Z,99.90
2018-04-11T04:52:51.032Z,99.90
2018-04-11T04:55:19.429Z,99.90
2018-04-11T04:57:47.789Z,99.90
2018-04-11T05:00:15.415Z,99.90
2018-04-11T05:02:43.014Z,99.90
2018-04-11T05:05:10.759Z,99.90
2018-04-11T05:07:38.848Z,99.90
2018-04-11T05:10:06.483Z,99.90
2018-04-11T05:12:34.080Z,99.90
2018-04-11T05:15:01.715Z,99.90
2018-04-11T05:17:29.301Z,99.90
2018-04-11T05:19:56.907Z,99.90
2018-04-11T05:22:25.333Z,99.90
2018-04-11T05:24:53.715Z,99.90
2018-04-11T05:27:21.355Z,99.90
2018-04-11T05:29:48.949Z,99.90
2018-04-11T05:32:16.581Z,99.90
2018-04-11T05:34:44.997Z,99.90
2018-04-11T05:37:12.619Z,99.90
2018-04-11T05:39:41.010Z,99.90
2018-04-11T05:42:09.561Z,99.90
2018-04-11T05:44:37.807Z,99.90
2018-04-11T05:47:05.430Z,99.90
2018-04-11T05:49:33.837Z,99.90
2018-04-11T05:52:01.447Z,99.90
2018-04-11T05:54:29.096Z,99.90
2018-04-11T05:56:56.800Z,99.90
2018-04-11T05:59:24.448Z,99.90
2018-04-11T06:01:52.735Z,99.90
2018-04-11T06:04:20.390Z,99.90
2018-04-11T06:06:48.014Z,99.90
2018-04-11T06:09:16.390Z,99.90
2018-04-11T06:11:44.779Z,99.90
2018-04-11T06:14:12.444Z,99.90
2018-04-11T06:16:40.788Z,99.90
2018-04-11T06:19:08.392Z,99.90
2018-04-11T06:21:36.022Z,99.90
2018-04-11T06:24:03.657Z,99.90
2018-04-11T06:26:31.303Z,99.90
2018-04-11T06:28:58.901Z,99.90
2018-04-11T06:31:26.486Z,99.90
2018-04-11T06:33:54.879Z,99.90
2018-04-11T06:36:22.939Z,99.90
2018-04-11T06:38:50.548Z,99.90
2018-04-11T06:41:18.137Z,99.90
2018-04-11T06:43:45.725Z,99.90
2018-04-11T06:46:13.418Z,99.90
2018-04-11T06:48:41.057Z,99.90
2018-04-11T06:51:08.680Z,99.90
2018-04-11T06:53:36.279Z,99.90
2018-04-11T06:56:03.899Z,99.90
2018-04-11T06:58:32.288Z,99.90
2018-04-11T07:00:59.907Z,99.90
2018-04-11T07:03:27.500Z,99.90
2018-04-11T07:05:55.102Z,99.90
2018-04-11T07:08:22.708Z,99.90
2018-04-11T07:10:50.310Z,99.90
2018-04-11T07:13:18.687Z,99.90
2018-04-11T07:15:48.018Z,99.90
2018-04-11T07:18:15.637Z,99.90
2018-04-11T07:20:43.285Z,99.90
2018-04-11T07:23:11.555Z,99.90
2018-04-11T07:25:39.959Z,99.90
2018-04-11T07:28:07.561Z,99.90
2018-04-11T07:30:35.151Z,99.90
2018-04-11T07:33:02.781Z,99.90
2018-04-11T07:35:31.224Z,99.90
2018-04-11T07:37:58.832Z,99.90
2018-04-11T07:40:27.307Z,99.90
2018-04-11T07:42:54.892Z,99.90
2018-04-11T07:45:23.266Z,99.90
2018-04-11T07:47:50.895Z,99.90
2018-04-11T07:50:18.512Z,99.90
2018-04-11T07:52:46.159Z,99.90
2018-04-11T07:55:14.566Z,99.90
2018-04-11T07:57:42.139Z,99.90
2018-04-11T08:00:09.724Z,99.90
2018-04-11T08:02:37.377Z,99.90
2018-04-11T08:05:05.015Z,99.90
2018-04-11T08:07:33.445Z,99.90
2018-04-11T08:10:01.073Z,99.90
2018-04-11T08:12:29.442Z,99.90
2018-04-11T08:14:57.063Z,99.90
2018-04-11T08:17:24.738Z,99.90
2018-04-11T08:19:52.438Z,99.90
2018-04-11T08:22:20.851Z,99.90
2018-04-11T08:24:48.443Z,99.90
2018-04-11T08:27:16.145Z,99.90
2018-04-11T08:29:43.808Z,99.90
2018-04-11T08:32:11.477Z,99.90
2018-04-11T08:34:39.161Z,99.90
2018-04-11T08:37:07.610Z,99.90
2018-04-11T08:39:35.308Z,99.90
2018-04-11T08:42:03.010Z,99.90
2018-04-11T08:44:30.690Z,99.90
2018-04-11T08:46:58.342Z,99.90
2018-04-11T08:49:26.055Z,99.90
2018-04-11T08:51:53.690Z,99.90
2018-04-11T08:54:22.080Z,99.90
2018-04-11T08:56:49.747Z,99.90
2018-04-11T08:59:17.387Z,99.90
2018-04-11T09:01:44.972Z,99.90
2018-04-11T09:04:12.651Z,99.90
2018-04-11T09:06:40.277Z,99.90
2018-04-11T09:09:07.905Z,99.90
2018-04-11T09:11:35.538Z,99.90
2018-04-11T09:14:03.161Z,99.90
2018-04-11T09:16:31.513Z,99.90
2018-04-11T09:18:59.141Z,99.90
2018-04-11T09:21:26.798Z,99.90
2018-04-11T09:23:54.502Z,99.90
2018-04-11T09:26:22.192Z,99.90
2018-04-11T09:28:50.580Z,99.90
2018-04-11T09:31:18.213Z,99.90
2018-04-11T09:33:45.800Z,99.90
2018-04-11T09:36:13.424Z,99.90
2018-04-11T09:38:41.034Z,99.90
2018-04-11T09:41:08.649Z,99.90
2018-04-11T09:43:36.285Z,99.90
2018-04-11T09:46:04.737Z,99.90
2018-04-11T09:48:32.389Z,99.90
2018-04-11T09:50:59.993Z,99.90
2018-04-11T09:53:27.608Z,99.90
2018-04-11T09:55:55.279Z,99.90
2018-04-11T09:58:23.048Z,99.90
2018-04-11T10:00:53.553Z,99.90
2018-04-11T10:03:23.251Z,99.90
2018-04-11T10:05:51.636Z,99.90
2018-04-11T10:08:20.017Z,99.90
2018-04-11T10:10:48.379Z,99.90
2018-04-11T10:13:15.987Z,99.90
2018-04-11T10:15:43.647Z,99.90
2018-04-11T10:18:12.084Z,99.90
2018-04-11T10:20:39.731Z,99.90
2018-04-11T10:23:07.449Z,99.90
2018-04-11T10:25:35.905Z,99.90
2018-04-11T10:28:03.515Z,99.90
2018-04-11T10:30:31.876Z,99.90
2018-04-11T10:33:00.259Z,99.90
2018-04-11T10:35:27.929Z,99.90
2018-04-11T10:37:55.540Z,99.90
2018-04-11T10:40:23.213Z,99.90
2018-04-11T10:42:51.162Z,99.90
2018-04-11T10:45:18.784Z,99.90
2018-04-11T10:47:46.410Z,99.90
2018-04-11T10:50:14.026Z,99.90
2018-04-11T10:52:41.652Z,98.70
2018-04-11T10:55:09.249Z,98.90
2018-04-11T10:57:36.848Z,98.10
2018-04-11T11:00:06.200Z,98.80
2018-04-11T11:02:33.862Z,98.90
2018-04-11T11:05:01.519Z,97.80
2018-04-11T11:07:29.900Z,99.80
2018-04-11T11:09:57.691Z,99.80
2018-04-11T11:12:26.603Z,97.20
2018-04-11T11:14:54.259Z,98.20
2018-04-11T11:17:21.910Z,97.50
2018-04-11T11:20:02.174Z,98.10
2018-04-11T11:22:29.865Z,98.20
2018-04-11T11:24:58.371Z,98.70
2018-04-11T11:27:27.205Z,98.70
2018-04-11T11:29:54.820Z,98.70
2018-04-11T11:32:23.206Z,98.60
2018-04-11T11:34:50.843Z,98.60
2018-04-11T11:37:18.469Z,98.10
2018-04-11T11:39:46.125Z,98.90
2018-04-11T11:42:13.781Z,98.80
2018-04-11T11:44:42.185Z,96.60
2018-04-11T11:47:09.789Z,96.60
2018-04-11T11:49:37.824Z,96.80
2018-04-11T11:52:05.489Z,96.90
2018-04-11T11:54:33.095Z,97.70
2018-04-11T11:57:00.701Z,96.80
2018-04-11T11:59:29.097Z,96.80
2018-04-11T12:01:57.453Z,96.80
2018-04-11T12:04:25.104Z,96.80
2018-04-11T12:06:52.695Z,97.30
2018-04-11T12:09:21.056Z,97.00
2018-04-11T12:11:48.660Z,97.00
2018-04-11T12:14:16.236Z,95.40
2018-04-11T12:16:43.832Z,95.10
2018-04-11T12:19:11.424Z,96.20
2018-04-11T12:21:39.106Z,95.60
2018-04-11T12:24:07.496Z,95.60
2018-04-11T12:26:35.893Z,95.90
2018-04-11T12:29:03.475Z,95.90
2018-04-11T12:31:31.070Z,96.50
2018-04-11T12:33:58.688Z,96.80
2018-04-11T12:36:26.268Z,96.30
2018-04-11T12:38:53.894Z,97.10
2018-04-11T12:41:21.496Z,96.80
2018-04-11T12:43:49.142Z,97.20
2018-04-11T12:46:17.654Z,97.40
2018-04-11T12:48:45.261Z,97.40
2018-04-11T12:51:12.866Z,97.80
2018-04-11T12:53:40.558Z,97.50
2018-04-11T12:56:08.137Z,97.50
2018-04-11T12:58:36.370Z,97.40
2018-04-11T13:01:04.770Z,97.50
2018-04-11T13:03:32.501Z,97.50
2018-04-11T13:06:00.879Z,97.50
2018-04-11T13:08:28.507Z,97.20
2018-04-11T13:10:56.119Z,97.90
2018-04-11T13:13:23.737Z,97.10
2018-04-11T13:15:51.341Z,96.70
2018-04-11T13:18:19.001Z,95.50
2018-04-11T13:20:46.579Z,95.00
2018-04-11T13:23:14.945Z,93.50
2018-04-11T13:25:42.587Z,93.50
2018-04-11T13:28:10.145Z,93.90
2018-04-11T13:30:37.818Z,92.60
2018-04-11T13:33:06.576Z,92.30
2018-04-11T13:35:34.290Z,92.00
2018-04-11T13:38:02.621Z,91.30
2018-04-11T13:40:30.470Z,91.90
2018-04-11T13:42:58.080Z,91.90
2018-04-11T13:45:25.701Z,91.70
2018-04-11T13:47:53.336Z,91.30
2018-04-11T13:50:21.005Z,93.00
2018-04-11T13:52:48.648Z,91.70
2018-04-11T13:55:16.298Z,91.40
2018-04-11T13:57:43.919Z,91.70
2018-04-11T14:00:11.496Z,90.80
2018-04-11T14:02:40.007Z,90.70
2018-04-11T14:05:07.594Z,90.50
2018-04-11T14:07:35.213Z,89.60
2018-04-11T14:10:02.810Z,88.80
2018-04-11T14:12:30.428Z,88.40
2018-04-11T14:14:58.088Z,87.30
2018-04-11T14:17:25.786Z,90.10
2018-04-11T14:19:53.484Z,88.90
2018-04-11T14:22:21.712Z,89.80
2018-04-11T14:24:49.376Z,90.60
2018-04-11T14:27:16.964Z,91.20
2018-04-11T14:29:44.579Z,90.80
2018-04-11T14:32:12.192Z,90.90
2018-04-11T14:34:39.813Z,91.50
2018-04-11T14:37:07.485Z,90.80
2018-04-11T14:39:35.072Z,91.50
2018-04-11T14:42:02.651Z,92.00
2018-04-11T14:44:32.155Z,92.60
2018-04-11T14:46:59.783Z,92.60
2018-04-11T14:49:27.359Z,91.70
2018-04-11T14:51:54.956Z,93.00
2018-04-11T14:54:22.548Z,92.90
2018-04-11T14:56:50.145Z,93.80
2018-04-11T14:59:17.721Z,94.40
2018-04-11T15:01:45.325Z,94.50
2018-04-11T15:04:13.678Z,94.90
2018-04-11T15:06:41.282Z,95.70
2018-04-11T15:09:09.870Z,95.30
2018-04-11T15:11:38.254Z,95.40
2018-04-11T15:14:06.625Z,95.20
2018-04-11T15:16:34.206Z,95.20
2018-04-11T15:19:01.797Z,95.50
2018-04-11T15:21:29.397Z,95.90
2018-04-11T15:23:57.027Z,96.00
2018-04-11T15:26:24.616Z,96.30
2018-04-11T15:28:52.217Z,96.00
2018-04-11T15:31:20.700Z,96.50
2018-04-11T15:33:48.357Z,96.40
2018-04-11T15:36:16.837Z,96.30
2018-04-11T15:38:44.511Z,96.20
2018-04-11T15:41:12.962Z,96.30
2018-04-11T15:43:40.577Z,96.30
2018-04-11T15:49:17.910Z,95.80
2018-04-11T15:51:46.261Z,95.90
2018-04-11T15:54:13.884Z,95.90
2018-04-11T15:56:41.474Z,96.00
2018-04-11T15:59:09.066Z,95.90
2018-04-11T16:01:36.750Z,95.50
2018-04-11T16:04:04.355Z,94.60
2018-04-11T16:06:32.263Z,93.80
2018-04-11T16:08:59.927Z,93.00
2018-04-11T16:11:27.560Z,94.10
2018-04-11T16:13:55.132Z,93.90
2018-04-11T16:16:23.535Z,94.10
2018-04-11T16:18:51.183Z,94.10
2018-04-11T16:21:18.787Z,94.10
2018-04-11T16:23:46.472Z,94.50
2018-04-11T16:26:14.091Z,95.70
2018-04-11T16:28:42.438Z,95.60
2018-04-11T16:31:10.046Z,95.60
2018-04-11T16:33:38.416Z,97.10
2018-04-11T16:36:06.028Z,97.00
2018-04-11T16:38:33.650Z,97.50
2018-04-11T16:41:01.992Z,98.40
2018-04-11T16:43:29.730Z,98.20
2018-04-11T16:45:57.353Z,98.40
2018-04-11T16:48:25.026Z,99.00
2018-04-11T16:50:52.610Z,99.10
2018-04-11T16:53:21.894Z,99.50
2018-04-11T16:55:49.500Z,99.50
2018-04-11T16:58:17.091Z,99.30
2018-04-11T17:00:44.670Z,99.60
2018-04-11T17:03:12.226Z,99.80
2018-04-11T17:05:39.811Z,99.90
2018-04-11T17:08:07.423Z,99.90
2018-04-11T17:10:35.026Z,99.90
2018-04-11T17:13:03.320Z,99.90
2018-04-11T17:15:30.918Z,99.90
2018-04-11T17:17:59.205Z,99.90
2018-04-11T17:20:40.135Z,99.90
2018-04-11T17:23:19.524Z,99.90
2018-04-11T17:25:58.870Z,99.90
2018-04-11T17:28:38.320Z,99.90
2018-04-11T17:31:26.769Z,99.90
2018-04-11T17:33:55.090Z,99.90
2018-04-11T17:36:22.711Z,99.90
2018-04-11T17:38:50.304Z,99.90
2018-04-11T17:41:17.904Z,99.90
2018-04-11T17:43:46.284Z,99.90
2018-04-11T17:46:13.880Z,99.90
2018-04-11T17:48:41.460Z,99.90
2018-04-11T17:51:09.083Z,99.90
2018-04-11T17:53:37.549Z,99.90
2018-04-11T17:56:05.897Z,99.90
2018-04-11T17:58:33.497Z,99.90
2018-04-11T18:01:01.847Z,99.90
2018-04-11T18:03:29.485Z,99.90
2018-04-11T18:05:57.080Z,99.90
2018-04-11T18:08:24.746Z,99.90
2018-04-11T18:10:52.351Z,99.90
2018-04-11T18:13:20.692Z,99.90
2018-04-11T18:15:48.345Z,99.90
2018-04-11T18:18:15.965Z,99.90
2018-04-11T18:20:44.302Z,99.90
2018-04-11T18:23:12.584Z,99.90
2018-04-11T18:25:43.739Z,99.90
2018-04-11T18:28:12.307Z,99.90
2018-04-11T18:30:40.149Z,99.90
2018-04-11T18:33:07.937Z,99.90
2018-04-11T18:35:38.183Z,99.90
2018-04-11T18:38:06.776Z,99.90
2018-04-11T18:40:34.475Z,99.90
2018-04-11T18:43:02.914Z,99.90
2018-04-11T18:45:31.210Z,99.90
2018-04-11T18:48:01.292Z,99.90
2018-04-11T18:50:28.922Z,99.90
2018-04-11T18:52:56.816Z,99.90
2018-04-11T18:55:24.524Z,99.90
2018-04-11T18:57:52.150Z,99.90
2018-04-11T19:00:19.729Z,99.90
2018-04-11T19:02:47.384Z,99.90
2018-04-11T19:05:14.999Z,99.90
2018-04-11T19:07:42.819Z,99.90
2018-04-11T19:10:10.529Z,99.90
2018-04-11T19:12:38.116Z,99.90
2018-04-11T19:15:06.545Z,99.90
2018-04-11T19:17:34.169Z,99.90
2018-04-11T19:20:01.760Z,99.90
2018-04-11T19:22:30.119Z,99.90
2018-04-11T19:24:57.693Z,99.90
2018-04-11T19:27:25.326Z,99.90
2018-04-11T19:29:52.894Z,99.90
2018-04-11T19:32:20.496Z,99.90
2018-04-11T19:34:48.077Z,99.90
2018-04-11T19:37:15.659Z,99.90
2018-04-11T19:39:43.250Z,99.90
2018-04-11T19:42:10.823Z,99.90
2018-04-11T19:44:38.421Z,99.90
2018-04-11T19:47:06.779Z,99.90
2018-04-11T19:49:34.393Z,99.90
2018-04-11T19:52:02.061Z,99.90
2018-04-11T19:54:30.348Z,99.90
2018-04-11T19:56:57.972Z,99.90
2018-04-11T19:59:26.377Z,99.90
2018-04-11T20:01:53.969Z,99.90
2018-04-11T20:04:21.616Z,99.90
2018-04-11T20:06:49.210Z,99.90
2018-04-11T20:09:16.813Z,99.90
2018-04-11T20:11:44.454Z,99.90
2018-04-11T20:14:12.036Z,99.90
2018-04-11T20:16:39.660Z,99.90
2018-04-11T20:19:07.262Z,99.90
2018-04-11T20:21:34.832Z,99.90
2018-04-11T20:24:02.471Z,99.90
2018-04-11T20:26:30.116Z,99.90
2018-04-11T20:28:57.699Z,99.90
2018-04-11T20:31:25.313Z,99.90
2018-04-11T20:33:53.721Z,99.90
2018-04-11T20:36:21.316Z,99.90
2018-04-11T20:38:48.903Z,99.90
2018-04-11T20:41:16.513Z,99.90
2018-04-11T20:43:44.123Z,99.90
2018-04-11T20:46:12.177Z,99.90
2018-04-11T20:48:40.079Z,99.90
2018-04-11T20:51:07.779Z,99.90
2018-04-11T20:53:35.419Z,99.90
2018-04-11T20:56:03.906Z,99.90
2018-04-11T20:58:32.392Z,99.90
2018-04-11T21:01:00.028Z,99.90
2018-04-11T21:03:27.640Z,99.90
2018-04-11T21:05:56.303Z,99.90
2018-04-11T21:08:24.042Z,99.90
2018-04-11T21:10:52.910Z,99.90
2018-04-11T21:13:21.324Z,99.90
2018-04-11T21:15:48.899Z,99.90
2018-04-11T21:18:16.464Z,99.90
2018-04-11T21:20:44.933Z,99.90
2018-04-11T21:23:12.559Z,99.90
2018-04-11T21:25:40.193Z,99.90
2018-04-11T21:28:07.771Z,99.90
2018-04-11T21:30:35.355Z,99.90
2018-04-11T21:33:03.749Z,99.90
2018-04-11T21:35:32.095Z,99.90
2018-04-11T21:37:59.761Z,99.90
2018-04-11T21:40:27.337Z,99.90
2018-04-11T21:42:54.943Z,99.90
2018-04-11T21:45:22.577Z,99.90
2018-04-11T21:47:51.696Z,99.90
2018-04-11T21:50:20.069Z,99.90
2018-04-11T21:52:47.635Z,99.90
2018-04-11T21:55:16.013Z,99.90
2018-04-11T21:57:43.620Z,99.90
2018-04-11T22:00:11.201Z,99.90
2018-04-11T22:02:38.795Z,99.90
2018-04-11T22:05:06.794Z,99.90
2018-04-11T22:07:35.637Z,99.90
2018-04-11T22:10:03.244Z,99.90
2018-04-11T22:12:30.909Z,99.90
2018-04-11T22:14:59.267Z,99.90
2018-04-11T22:17:26.835Z,99.90
2018-04-11T22:19:54.468Z,99.90
2018-04-11T22:22:22.143Z,99.90
2018-04-11T22:24:50.462Z,99.90
2018-04-11T22:27:18.893Z,99.90
2018-04-11T22:29:46.485Z,99.90
2018-04-11T22:32:14.059Z,99.90
2018-04-11T22:34:41.635Z,99.90
2018-04-11T22:37:09.226Z,99.90
2018-04-11T22:39:36.807Z,99.90
2018-04-11T22:42:04.391Z,99.90
2018-04-11T22:44:31.969Z,99.90
2018-04-11T22:46:59.549Z,99.90
2018-04-11T22:49:27.137Z,99.90
2018-04-11T22:51:55.521Z,99.90
2018-04-11T22:54:23.907Z,99.90
2018-04-11T22:56:51.479Z,99.90
2018-04-11T22:59:19.140Z,99.90
2018-04-11T23:01:47.616Z,99.90
2018-04-11T23:04:15.188Z,99.90
2018-04-11T23:06:42.780Z,99.90
2018-04-11T23:09:10.380Z,99.90
2018-04-11T23:11:38.013Z,99.90
2018-04-11T23:14:05.636Z,99.90
2018-04-11T23:16:33.301Z,99.90
2018-04-11T23:19:01.546Z,99.90
2018-04-11T23:21:29.177Z,99.90
2018-04-11T23:23:57.717Z,99.90
2018-04-11T23:26:25.313Z,99.90
2018-04-11T23:28:52.948Z,99.90
2018-04-11T23:31:20.559Z,99.90
2018-04-11T23:33:48.907Z,99.90
2018-04-11T23:36:16.625Z,99.90
2018-04-11T23:38:44.223Z,99.90
2018-04-11T23:41:11.840Z,99.90
2018-04-11T23:43:40.197Z,99.90
2018-04-11T23:46:07.802Z,99.90
2018-04-11T23:48:35.414Z,99.90
2018-04-11T23:51:03.803Z,99.90
2018-04-11T23:53:31.401Z,99.90
2018-04-11T23:55:59.013Z,99.90
2018-04-11T23:58:26.633Z,99.90
